createdAt,value
2018-12-23T00:02:09.942Z,0.70
2018-12-23T00:04:43.170Z,0.90
2018-12-23T00:07:15.746Z,0.67
2018-12-23T00:09:51.138Z,1.20
2018-12-23T00:12:26.217Z,0.97
2018-12-23T00:14:58.485Z,1.03
2018-12-23T00:17:28.959Z,0.80
2018-12-23T00:19:59.642Z,0.90
2018-12-23T00:22:44.374Z,0.90
2018-12-23T00:25:15.440Z,0.80
2018-12-23T00:27:46.372Z,0.87
2018-12-23T00:30:17.148Z,1.10
2018-12-23T00:32:50.179Z,1.07
2018-12-23T00:35:21.131Z,1.10
2018-12-23T00:37:54.115Z,1.03
2018-12-23T00:40:26.642Z,0.90
2018-12-23T00:42:58.442Z,0.80
2018-12-23T00:45:29.706Z,0.93
2018-12-23T00:48:00.437Z,1.10
2018-12-23T00:50:35.273Z,0.90
2018-12-23T00:53:07.321Z,0.90
2018-12-23T00:55:38.567Z,1.00
2018-12-23T00:58:09.181Z,1.10
2018-12-23T01:00:40.017Z,1.07
2018-12-23T01:03:10.733Z,1.00
2018-12-23T01:05:41.845Z,1.20
2018-12-23T01:08:12.645Z,1.23
2018-12-23T01:10:49.326Z,1.00
2018-12-23T01:13:22.941Z,0.80
2018-12-23T01:15:53.445Z,1.00
2018-12-23T01:18:25.070Z,1.10
2018-12-23T01:20:56.350Z,0.90
2018-12-23T01:23:28.689Z,1.13
2018-12-23T01:25:59.759Z,1.20
2018-12-23T01:28:31.635Z,1.20
2018-12-23T01:31:04.014Z,1.33
2018-12-23T01:33:45.602Z,1.00
2018-12-23T01:36:16.745Z,0.60
2018-12-23T01:38:47.894Z,1.17
2018-12-23T01:41:21.542Z,1.00
2018-12-23T01:43:54.775Z,1.10
2018-12-23T01:46:25.981Z,0.63
2018-12-23T01:48:58.985Z,0.93
2018-12-23T01:51:29.603Z,1.13
2018-12-23T01:54:03.596Z,1.10
2018-12-23T01:56:36.836Z,1.30
2018-12-23T01:59:10.935Z,0.90
2018-12-23T02:01:41.701Z,0.90
2018-12-23T02:04:12.849Z,0.80
2018-12-23T02:06:43.649Z,1.00
2018-12-23T02:09:14.524Z,1.03
2018-12-23T02:11:47.512Z,1.03
2018-12-23T02:14:19.004Z,0.97
2018-12-23T02:16:49.611Z,0.80
2018-12-23T02:19:21.010Z,1.00
2018-12-23T02:21:56.477Z,1.00
2018-12-23T02:24:28.159Z,0.80
2018-12-23T02:27:00.171Z,1.00
2018-12-23T02:29:33.195Z,1.37
2018-12-23T02:32:04.047Z,1.00
2018-12-23T02:34:34.722Z,0.73
2018-12-23T02:37:06.309Z,1.03
2018-12-23T02:39:37.171Z,0.97
2018-12-23T02:42:10.934Z,0.87
2018-12-23T02:44:45.247Z,0.60
2018-12-23T02:47:18.538Z,1.27
2018-12-23T02:49:50.958Z,1.10
2018-12-23T02:52:21.801Z,1.10
2018-12-23T02:54:53.043Z,0.63
2018-12-23T02:58:28.343Z,0.70
2018-12-23T03:01:19.315Z,0.67
2018-12-23T03:04:29.295Z,0.90
2018-12-23T03:07:13.380Z,1.07
2018-12-23T03:10:15.651Z,0.63
2018-12-23T03:18:37.021Z,0.93
2018-12-23T03:21:47.013Z,1.33
2018-12-23T03:24:56.982Z,0.80
2018-12-23T03:28:06.969Z,1.37
2018-12-23T03:33:43.769Z,1.40
2018-12-23T03:36:34.741Z,0.90
2018-12-23T03:42:09.804Z,1.40
2018-12-23T03:48:05.710Z,1.50
2018-12-23T03:51:15.706Z,1.93
2018-12-23T03:54:25.687Z,1.23
2018-12-23T03:57:16.709Z,1.30
2018-12-23T04:00:19.558Z,1.87
2018-12-23T04:03:13.181Z,1.67
2018-12-23T04:14:14.055Z,1.20
2018-12-23T04:17:05.218Z,1.50
2018-12-23T04:19:56.228Z,1.37
2018-12-23T04:25:35.606Z,1.63
2018-12-23T04:28:26.648Z,1.30
2018-12-23T04:36:46.023Z,1.30
2018-12-23T04:45:23.681Z,1.03
2018-12-23T04:48:45.041Z,1.20
2018-12-23T04:51:19.150Z,1.20
2018-12-23T04:54:10.221Z,0.90
2018-12-23T04:57:01.273Z,1.73
2018-12-23T05:16:53.323Z,0.80
2018-12-23T05:19:44.316Z,1.60
2018-12-23T05:23:13.561Z,1.30
2018-12-23T05:26:04.551Z,1.60
2018-12-23T05:28:55.594Z,1.57
2018-12-23T05:31:46.652Z,1.37
2018-12-23T05:41:01.169Z,1.23
2018-12-23T05:43:52.177Z,1.57
2018-12-23T05:49:30.697Z,1.63
2018-12-23T05:52:23.788Z,1.50
2018-12-23T05:55:35.397Z,1.30
2018-12-23T05:58:27.435Z,1.90
2018-12-23T06:04:20.272Z,1.30
2018-12-23T06:07:11.290Z,1.07
2018-12-23T06:13:07.490Z,0.80
2018-12-23T06:19:02.601Z,1.30
2018-12-23T06:24:37.101Z,1.00
2018-12-23T06:30:32.008Z,1.33
2018-12-23T06:33:43.772Z,1.17
2018-12-23T06:37:09.965Z,1.10
2018-12-23T06:45:23.366Z,1.07
2018-12-23T06:48:16.480Z,1.00
2018-12-23T06:54:09.552Z,0.77
2018-12-23T06:57:19.566Z,0.93
2018-12-23T07:00:22.535Z,1.03
2018-12-23T07:08:23.768Z,1.20
2018-12-23T07:13:57.795Z,0.90
2018-12-23T07:22:36.840Z,1.10
2018-12-23T07:28:32.774Z,1.30
2018-12-23T07:31:25.476Z,1.30
2018-12-23T07:42:51.878Z,1.27
2018-12-23T07:48:44.290Z,1.40
2018-12-23T07:51:54.271Z,1.20
2018-12-23T07:57:47.911Z,1.30
2018-12-23T08:09:10.853Z,1.30
2018-12-23T08:12:20.831Z,0.83
2018-12-23T08:15:16.006Z,0.97
2018-12-23T08:18:07.035Z,1.20
2018-12-23T08:20:58.035Z,0.87
2018-12-23T08:23:49.013Z,1.03
2018-12-23T08:29:42.818Z,1.00
2018-12-23T08:35:22.130Z,0.73
2018-12-23T08:38:13.119Z,1.40
2018-12-23T08:44:07.020Z,1.00
2018-12-23T08:47:17.005Z,1.20
2018-12-23T08:50:26.994Z,1.30
2018-12-23T08:59:04.332Z,1.07
2018-12-23T09:02:14.319Z,1.00
2018-12-23T09:05:18.691Z,0.80
2018-12-23T09:08:04.470Z,1.00
2018-12-23T09:14:04.027Z,1.27
2018-12-23T09:16:38.956Z,1.07
2018-12-23T09:22:02.098Z,1.10
2018-12-23T09:25:13.673Z,1.00
2018-12-23T09:28:43.360Z,0.83
2018-12-23T09:31:34.482Z,0.90
2018-12-23T09:37:28.259Z,2.40
2018-12-23T09:41:03.630Z,1.73
2018-12-23T09:44:32.810Z,2.10
2018-12-23T09:56:54.027Z,1.33
2018-12-23T09:59:45.729Z,1.70
2018-12-23T10:02:49.571Z,1.53
2018-12-23T10:11:52.490Z,1.33
2018-12-23T10:24:14.362Z,1.50
2018-12-23T10:27:06.313Z,1.60
2018-12-23T10:30:16.313Z,1.57
2018-12-23T10:32:59.634Z,1.77
2018-12-23T10:35:50.613Z,1.50
2018-12-23T10:38:56.165Z,1.50
2018-12-23T10:42:06.144Z,1.80
2018-12-23T10:45:16.141Z,1.43
2018-12-23T10:48:27.958Z,1.03
2018-12-23T10:51:28.873Z,1.00
2018-12-23T11:02:56.740Z,1.47
2018-12-23T11:05:52.452Z,1.90
2018-12-23T11:08:43.746Z,1.53
2018-12-23T11:11:34.755Z,1.20
2018-12-23T11:14:25.730Z,1.63
2018-12-23T11:17:16.725Z,1.80
2018-12-23T11:20:19.808Z,1.50
2018-12-23T11:22:51.819Z,1.60
2018-12-23T11:31:11.734Z,1.40
2018-12-23T11:34:02.421Z,1.37
2018-12-23T11:39:37.914Z,1.20
2018-12-23T11:42:47.890Z,1.40
2018-12-23T11:53:53.967Z,1.10
2018-12-23T11:56:44.952Z,1.30
2018-12-23T12:05:24.089Z,1.53
2018-12-23T12:10:58.168Z,1.30
2018-12-23T12:13:49.175Z,1.83
2018-12-23T12:19:42.956Z,1.80
2018-12-23T12:23:12.247Z,1.90
2018-12-23T12:26:22.234Z,1.73
2018-12-23T12:31:58.048Z,2.10
2018-12-23T12:38:10.737Z,1.57
2018-12-23T12:41:01.752Z,1.50
2018-12-23T12:43:52.811Z,2.00
2018-12-23T12:46:55.280Z,2.10
2018-12-23T12:52:31.311Z,1.50
2018-12-23T12:55:41.303Z,2.20
2018-12-23T13:03:59.271Z,1.30
2018-12-23T13:06:50.309Z,1.30
2018-12-23T13:17:52.964Z,1.40
2018-12-23T13:23:28.414Z,0.93
2018-12-23T13:29:05.386Z,1.37
2018-12-23T13:31:56.363Z,1.50
2018-12-23T13:37:51.444Z,1.40
2018-12-23T13:41:16.055Z,1.20
2018-12-23T13:44:27.420Z,1.40
2018-12-23T13:47:56.365Z,1.00
2018-12-23T13:51:25.323Z,1.53
2018-12-23T13:54:54.263Z,1.33
2018-12-23T13:58:23.269Z,1.30
2018-12-23T14:01:52.306Z,1.50
2018-12-23T14:05:21.258Z,1.60
2018-12-23T14:08:50.307Z,1.77
2018-12-23T14:12:00.264Z,1.53
2018-12-23T14:14:51.275Z,1.67
2018-12-23T14:18:02.393Z,1.47
2018-12-23T14:21:12.466Z,1.53
2018-12-23T14:24:13.395Z,1.70
2018-12-23T14:26:47.971Z,1.83
2018-12-23T14:29:39.090Z,2.00
2018-12-23T14:35:17.598Z,1.73
2018-12-23T14:46:20.750Z,1.90
2018-12-23T14:52:05.172Z,1.93
2018-12-23T14:57:39.697Z,1.90
2018-12-23T15:00:30.707Z,1.63
2018-12-23T15:03:21.681Z,1.87
2018-12-23T15:06:22.607Z,1.97
2018-12-23T15:14:45.925Z,1.70
2018-12-23T15:17:56.246Z,2.23
2018-12-23T15:23:51.765Z,1.60
2018-12-23T15:29:25.828Z,1.93
2018-12-23T15:32:16.846Z,2.93
2018-12-23T15:35:26.809Z,2.00
2018-12-23T15:38:17.796Z,2.33
2018-12-23T15:41:08.787Z,1.93
2018-12-23T15:43:59.903Z,2.10
2018-12-23T15:49:53.285Z,2.80
2018-12-23T15:52:44.285Z,2.07
2018-12-23T15:55:54.292Z,1.87
2018-12-23T16:01:28.994Z,2.50
2018-12-23T16:04:19.987Z,2.30
2018-12-23T16:09:54.543Z,2.50
2018-12-23T16:13:04.581Z,2.00
2018-12-23T16:16:14.609Z,2.63
2018-12-23T16:22:12.039Z,2.30
2018-12-23T16:27:28.052Z,2.60
2018-12-23T16:30:19.135Z,2.50
2018-12-23T16:33:10.031Z,2.63
2018-12-23T16:36:20.074Z,2.33
2018-12-23T16:39:11.099Z,1.93
2018-12-23T16:42:02.121Z,2.70
2018-12-23T16:44:52.760Z,2.27
2018-12-23T16:47:53.711Z,2.63
2018-12-23T16:53:09.186Z,2.60
2018-12-23T16:56:00.199Z,2.70
2018-12-23T16:59:10.206Z,4.20
2018-12-23T17:02:01.205Z,2.83
2018-12-23T17:05:30.166Z,2.93
2018-12-23T17:08:40.399Z,3.00
2018-12-23T17:19:26.911Z,2.70
2018-12-23T17:25:19.257Z,3.27
2018-12-23T17:31:14.472Z,3.73
2018-12-23T17:34:05.497Z,3.33
2018-12-23T17:36:56.484Z,2.83
2018-12-23T17:39:47.490Z,2.90
2018-12-23T17:42:57.803Z,1.97
2018-12-23T17:45:48.807Z,3.30
2018-12-23T17:51:43.452Z,5.80
2018-12-23T17:54:34.433Z,5.10
2018-12-23T17:57:16.693Z,5.70
2018-12-23T18:00:19.656Z,4.37
2018-12-23T18:11:06.415Z,4.30
2018-12-23T18:19:23.666Z,5.20
2018-12-23T18:28:03.596Z,1.77
2018-12-23T18:30:54.579Z,1.57
2018-12-23T18:37:08.411Z,1.80
2018-12-23T18:43:03.642Z,2.30
2018-12-23T18:45:54.621Z,1.90
2018-12-23T18:54:36.795Z,2.30
2018-12-23T19:03:38.762Z,2.37
2018-12-23T19:06:48.798Z,3.37
2018-12-23T19:10:17.740Z,2.57
2018-12-23T19:13:46.726Z,4.97
2018-12-23T19:17:00.588Z,3.20
2018-12-23T19:19:58.363Z,3.30
2018-12-23T19:23:13.935Z,3.30
2018-12-23T19:26:42.890Z,2.70
2018-12-23T19:33:27.433Z,2.73
2018-12-23T19:40:18.498Z,3.70
2018-12-23T19:43:47.451Z,4.20
2018-12-23T19:47:16.390Z,4.57
2018-12-23T19:50:25.988Z,3.87
2018-12-23T19:53:55.101Z,3.93
2018-12-23T19:57:06.177Z,3.80
2018-12-23T20:00:35.116Z,2.33
2018-12-23T20:03:44.746Z,5.93
2018-12-23T20:07:13.721Z,10.90
2018-12-23T20:10:42.698Z,3.53
2018-12-23T20:14:11.690Z,4.87
2018-12-23T20:17:40.634Z,2.83
2018-12-23T20:21:09.582Z,2.80
2018-12-23T20:24:38.516Z,2.63
2018-12-23T20:28:07.452Z,3.20
2018-12-23T20:31:36.419Z,3.60
2018-12-23T20:35:24.297Z,2.70
2018-12-23T20:38:21.985Z,2.80
2018-12-23T20:41:50.970Z,3.43
2018-12-23T20:45:00.563Z,3.50
2018-12-23T20:48:29.544Z,5.60
2018-12-23T20:51:58.547Z,5.47
2018-12-23T20:55:23.583Z,6.13
2018-12-23T20:58:42.949Z,6.57
2018-12-23T21:02:06.589Z,6.83
2018-12-23T21:05:35.616Z,4.10
2018-12-23T21:09:05.637Z,4.70
2018-12-23T21:12:21.280Z,8.70
2018-12-23T21:15:50.322Z,6.57
2018-12-23T21:19:12.363Z,6.23
2018-12-23T21:22:41.307Z,4.67
2018-12-23T21:26:10.257Z,4.73
2018-12-23T21:32:50.643Z,3.23
2018-12-23T21:36:15.858Z,4.20
2018-12-23T21:39:17.583Z,6.73
2018-12-23T21:46:10.488Z,3.07
2018-12-23T21:49:39.446Z,5.13
2018-12-23T21:53:09.009Z,3.37
2018-12-23T21:56:14.199Z,3.40
2018-12-23T21:59:43.412Z,3.57
2018-12-23T22:03:31.629Z,3.80
2018-12-23T22:07:00.667Z,3.97
2018-12-23T22:10:29.613Z,3.40
2018-12-23T22:13:39.602Z,4.33
2018-12-23T22:16:49.620Z,4.33
2018-12-23T22:19:59.589Z,4.37
2018-12-23T22:23:09.582Z,5.23
2018-12-23T22:26:32.102Z,4.53
2018-12-23T22:34:31.652Z,6.60
2018-12-23T22:37:41.640Z,5.50
2018-12-23T22:40:43.808Z,5.87
2018-12-23T22:46:18.735Z,6.23
2018-12-23T22:54:56.785Z,5.67
2018-12-23T23:03:36.801Z,4.37
2018-12-23T23:06:27.814Z,5.20
2018-12-23T23:12:21.276Z,5.40
2018-12-23T23:15:31.254Z,5.97
2018-12-23T23:23:47.850Z,5.80
2018-12-23T23:46:19.123Z,5.67
2018-12-23T23:49:29.108Z,5.70
2018-12-23T23:52:39.102Z,4.80
2018-12-23T23:55:30.062Z,5.30
